Time;durP1;ratioP1;P1;durP2;ratioP2;P2;SDS_P1;SDS_P2;PMS_P1;PMS_P2;Temp;Humidity;BMP_temperature;BMP_pressure;BME280_temperature;BME280_humidity;BME280_pressure;Samples;Min_cycle;Max_cycle;Signal;HPM_P1;HPM_P2
2023/06/09 00:00:21;;;;;;;;;26.50;26.50;;;;;;;;5045860;28;8877;-78
2023/06/09 00:02:50;;;;;;;;;31.75;30.00;;;;;;;;5045356;28;8899;-78
2023/06/09 00:05:20;;;;;;;;;28.50;28.50;;;;;;;;5047675;28;8899;-78
2023/06/09 00:07:48;;;;;;;;;27.75;27.50;;;;;;;;5044802;28;8855;-78
2023/06/09 00:10:16;;;;;;;;;30.00;28.50;;;;;;;;5051013;28;8839;-78
2023/06/09 00:12:44;;;;;;;;;35.75;30.50;;;;;;;;5051183;28;8855;-79
2023/06/09 00:15:11;;;;;;;;;28.00;26.75;;;;;;;;5045191;28;8891;-78
2023/06/09 00:17:40;;;;;;;;;31.75;28.50;;;;;;;;5050466;28;9001;-78
2023/06/09 00:20:09;;;;;;;;;31.75;30.75;;;;;;;;5044882;28;9646;-78
2023/06/09 00:22:42;;;;;;;;;29.50;29.50;;;;;;;;5039105;28;8859;-78
2023/06/09 00:25:11;;;;;;;;;28.00;27.00;;;;;;;;5050895;28;8878;-77
2023/06/09 00:27:38;;;;;;;;;33.50;31.50;;;;;;;;5051067;28;8859;-78
2023/06/09 00:30:08;;;;;;;;;27.75;27.75;;;;;;;;5050404;28;8855;-78
2023/06/09 00:32:35;;;;;;;;;29.00;29.00;;;;;;;;5052889;28;8847;-78
2023/06/09 00:35:02;;;;;;;;;31.25;30.00;;;;;;;;5054127;28;8969;-78
2023/06/09 00:37:30;;;;;;;;;30.50;29.00;;;;;;;;5048663;28;8875;-78
2023/06/09 00:39:58;;;;;;;;;28.25;27.75;;;;;;;;5050201;28;8867;-78
2023/06/09 00:42:26;;;;;;;;;23.00;23.00;;;;;;;;5047225;28;8855;-79
2023/06/09 00:44:53;;;;;;;;;28.75;28.75;;;;;;;;5047821;28;8986;-78
2023/06/09 00:47:20;;;;;;;;;27.75;27.75;;;;;;;;5049937;28;8879;-78
2023/06/09 00:49:48;;;;;;;;;28.50;28.50;;;;;;;;5050994;28;8859;-77
2023/06/09 00:52:16;;;;;;;;;28.50;28.50;;;;;;;;5050684;28;8855;-78
2023/06/09 00:54:43;;;;;;;;;28.00;27.75;;;;;;;;5049374;28;8873;-77
2023/06/09 00:57:12;;;;;;;;;24.50;24.50;;;;;;;;5051257;28;8978;-79
2023/06/09 00:59:40;;;;;;;;;29.75;28.50;;;;;;;;5050826;28;9672;-77
2023/06/09 01:02:08;;;;;;;;;31.00;30.25;;;;;;;;5051269;28;8837;-78
2023/06/09 01:04:36;;;;;;;;;28.50;28.50;;;;;;;;5047416;28;8871;-79
2023/06/09 01:07:10;;;;;;;;;27.50;25.75;;;;;;;;5051668;28;8843;-78
2023/06/09 01:09:43;;;;;;;;;31.25;29.25;;;;;;;;5046056;28;8850;-78
2023/06/09 01:12:21;;;;;;;;;29.25;29.00;;;;;;;;5031947;28;8923;-77
2023/06/09 01:14:53;;;;;;;;;35.50;29.75;;;;;;;;5045520;28;8851;-78
2023/06/09 01:17:23;;;;;;;;;32.50;29.75;;;;;;;;5032137;28;8857;-78
2023/06/09 01:19:54;;;;;;;;;27.25;27.00;;;;;;;;5045705;28;8858;-78
2023/06/09 01:22:31;;;;;;;;;29.25;28.50;;;;;;;;5047701;28;8890;-78
2023/06/09 01:25:07;;;;;;;;;28.50;26.75;;;;;;;;5048486;28;8843;-78
2023/06/09 01:27:44;;;;;;;;;26.00;26.00;;;;;;;;5043047;28;8865;-78
2023/06/09 01:30:13;;;;;;;;;30.25;29.75;;;;;;;;5045827;28;8828;-78
2023/06/09 01:32:41;;;;;;;;;30.75;30.00;;;;;;;;5045375;28;8850;-78
2023/06/09 01:35:09;;;;;;;;;33.25;30.50;;;;;;;;5043469;28;8866;-78
2023/06/09 01:37:37;;;;;;;;;30.25;29.50;;;;;;;;5039205;28;8866;-79
2023/06/09 01:40:05;;;;;;;;;29.25;29.00;;;;;;;;5048295;28;8851;-78
2023/06/09 01:42:32;;;;;;;;;27.00;27.00;;;;;;;;5049023;28;8890;-78
2023/06/09 01:45:01;;;;;;;;;27.25;27.25;;;;;;;;5046694;28;8878;-78
2023/06/09 01:47:31;;;;;;;;;26.00;24.00;;;;;;;;5039223;28;8859;-78
2023/06/09 01:50:04;;;;;;;;;31.25;29.50;;;;;;;;5049209;28;9071;-78
2023/06/09 01:52:38;;;;;;;;;29.25;29.00;;;;;;;;5050179;28;9203;-78
2023/06/09 01:55:10;;;;;;;;;30.50;29.25;;;;;;;;5048998;28;8839;-78
2023/06/09 01:57:43;;;;;;;;;31.50;30.00;;;;;;;;5048085;28;8867;-78
2023/06/09 02:00:13;;;;;;;;;28.00;26.25;;;;;;;;5048803;28;8875;-77
2023/06/09 02:02:41;;;;;;;;;32.33;30.00;;;;;;;;5044054;28;9003;-78
2023/06/09 02:05:09;;;;;;;;;32.33;30.00;;;;;;;;5049053;28;9810;-78
2023/06/09 02:07:39;;;;;;;;;30.25;29.50;;;;;;;;5037719;28;8949;-79
2023/06/09 02:10:08;;;;;;;;;31.00;29.25;;;;;;;;5048051;28;8882;-78
2023/06/09 02:12:35;;;;;;;;;33.67;31.33;;;;;;;;5049170;28;8875;-79
2023/06/09 02:15:03;;;;;;;;;31.67;30.67;;;;;;;;5048728;28;9016;-79
2023/06/09 02:17:32;;;;;;;;;30.33;30.00;;;;;;;;5047662;28;8958;-79
2023/06/09 02:19:59;;;;;;;;;29.00;28.67;;;;;;;;5046909;28;9792;-78
2023/06/09 02:22:27;;;;;;;;;32.67;30.33;;;;;;;;5047673;28;9023;-79
2023/06/09 02:24:55;;;;;;;;;27.67;27.67;;;;;;;;5046634;28;8989;-78
2023/06/09 02:27:22;;;;;;;;;34.67;30.33;;;;;;;;5048374;28;8943;-78
2023/06/09 02:29:50;;;;;;;;;26.67;26.67;;;;;;;;5049050;28;9948;-79
2023/06/09 02:32:17;;;;;;;;;33.67;30.00;;;;;;;;5049038;28;9029;-79
2023/06/09 02:34:46;;;;;;;;;28.33;28.00;;;;;;;;5047684;28;9083;-79
2023/06/09 02:37:13;;;;;;;;;32.67;30.00;;;;;;;;5049227;28;8958;-79
2023/06/09 02:39:40;;;;;;;;;34.67;31.33;;;;;;;;5049764;28;9119;-79
2023/06/09 02:42:08;;;;;;;;;31.67;30.67;;;;;;;;5048140;28;9030;-80
2023/06/09 02:44:36;;;;;;;;;30.33;29.00;;;;;;;;5048802;28;9158;-79
2023/06/09 02:47:04;;;;;;;;;35.67;32.00;;;;;;;;5050422;28;9094;-78
2023/06/09 02:49:31;;;;;;;;;30.33;30.00;;;;;;;;5035209;28;9267;-78
2023/06/09 02:52:00;;;;;;;;;33.00;30.67;;;;;;;;5034237;28;9182;-78
2023/06/09 02:54:27;;;;;;;;;38.33;35.00;;;;;;;;5035461;28;9099;-79
2023/06/09 02:56:56;;;;;;;;;42.67;37.67;;;;;;;;5048015;28;9338;-79
2023/06/09 02:59:23;;;;;;;;;45.67;38.00;;;;;;;;5047717;28;9644;-78
2023/06/09 03:01:50;;;;;;;;;45.00;38.75;;;;;;;;5047595;28;9391;-78
2023/06/09 03:04:18;;;;;;;;;40.00;35.75;;;;;;;;5040079;28;9567;-79
2023/06/09 03:06:48;;;;;;;;;39.67;35.33;;;;;;;;5048497;28;9483;-78
2023/06/09 03:09:18;;;;;;;;;44.75;36.50;;;;;;;;5047964;28;9386;-77
2023/06/09 03:11:46;;;;;;;;;44.75;36.25;;;;;;;;5047891;28;9472;-77
2023/06/09 03:14:13;;;;;;;;;37.67;33.00;;;;;;;;5041065;28;9675;-77
2023/06/09 03:16:41;;;;;;;;;44.00;38.00;;;;;;;;5048892;28;9371;-77
2023/06/09 03:19:08;;;;;;;;;43.33;37.33;;;;;;;;5049241;28;9676;-76
2023/06/09 03:21:36;;;;;;;;;43.75;38.00;;;;;;;;5045171;28;9531;-78
2023/06/09 03:24:04;;;;;;;;;40.67;35.00;;;;;;;;5054071;28;9589;-78
2023/06/09 03:26:33;;;;;;;;;38.33;33.67;;;;;;;;5051481;28;9319;-79
2023/06/09 03:29:00;;;;;;;;;42.75;36.75;;;;;;;;5039230;28;9239;-79
2023/06/09 03:31:27;;;;;;;;;40.33;35.33;;;;;;;;5050840;28;9533;-79
2023/06/09 03:33:55;;;;;;;;;40.67;35.67;;;;;;;;5051305;28;9569;-78
2023/06/09 03:36:22;;;;;;;;;36.00;32.00;;;;;;;;5048137;28;9336;-79
2023/06/09 03:38:50;;;;;;;;;38.00;35.00;;;;;;;;5042632;28;10144;-78
2023/06/09 03:41:17;;;;;;;;;34.67;32.00;;;;;;;;5050327;28;9313;-77
2023/06/09 03:43:46;;;;;;;;;40.33;35.67;;;;;;;;5051982;28;9199;-78
2023/06/09 03:46:13;;;;;;;;;38.33;33.33;;;;;;;;5051291;28;9423;-77
2023/06/09 03:48:41;;;;;;;;;32.33;31.33;;;;;;;;5044149;28;9271;-78
2023/06/09 03:51:08;;;;;;;;;28.67;28.67;;;;;;;;5047948;28;9237;-80
2023/06/09 03:53:35;;;;;;;;;36.33;32.67;;;;;;;;5040541;28;9242;-84
2023/06/09 03:56:02;;;;;;;;;36.67;32.00;;;;;;;;5036442;28;9373;-86
2023/06/09 03:58:30;;;;;;;;;35.00;32.67;;;;;;;;5045234;28;9354;-86
2023/06/09 04:00:59;;;;;;;;;34.00;31.67;;;;;;;;5048627;28;9164;-90
2023/06/09 04:03:31;;;;;;;;;38.33;35.00;;;;;;;;5047057;28;9191;-90
2023/06/09 04:05:58;;;;;;;;;36.00;33.00;;;;;;;;5051180;28;9315;-89
2023/06/09 04:08:25;;;;;;;;;33.00;32.00;;;;;;;;5035497;28;9348;-90
2023/06/09 04:10:56;;;;;;;;;28.33;28.33;;;;;;;;5049011;28;9339;-92
2023/06/09 04:13:24;;;;;;;;;31.67;30.67;;;;;;;;5051411;28;9194;-93
2023/06/09 04:15:57;;;;;;;;;31.33;30.00;;;;;;;;5047628;28;9044;-90
2023/06/09 04:18:28;;;;;;;;;31.33;30.33;;;;;;;;5053269;28;9338;-87
2023/06/09 04:21:09;;;;;;;;;33.33;30.33;;;;;;;;5053332;28;9110;-88
2023/06/09 04:23:43;;;;;;;;;29.67;29.33;;;;;;;;5056629;28;9087;-88
2023/06/09 04:26:29;;;;;;;;;24.25;24.25;;;;;;;;5022761;28;8953;-87
2023/06/09 04:28:58;;;;;;;;;28.67;28.33;;;;;;;;5055402;28;8855;-88
2023/06/09 04:31:33;;;;;;;;;29.67;25.67;;;;;;;;5048208;28;8998;-87
2023/06/09 04:34:05;;;;;;;;;34.67;31.00;;;;;;;;5045312;28;8985;-87
2023/06/09 04:36:41;;;;;;;;;31.00;30.00;;;;;;;;5051941;28;9040;-88
2023/06/09 04:39:41;;;;;;;;;34.00;32.33;;;;;;;;5052329;28;9013;-88
2023/06/09 04:42:14;;;;;;;;;36.33;32.33;;;;;;;;5037298;28;9034;-89
2023/06/09 04:44:47;;;;;;;;;33.33;32.00;;;;;;;;5040478;28;9021;-89
2023/06/09 04:47:24;;;;;;;;;32.25;28.75;;;;;;;;5051124;28;8965;-88
2023/06/09 04:50:07;;;;;;;;;27.50;26.75;;;;;;;;5069291;28;8861;-88
2023/06/09 04:52:39;;;;;;;;;30.33;28.67;;;;;;;;5044497;28;8875;-89
2023/06/09 04:55:07;;;;;;;;;31.00;30.00;;;;;;;;5051632;28;8969;-88
2023/06/09 04:57:40;;;;;;;;;34.67;30.00;;;;;;;;5039245;28;9055;-88
2023/06/09 05:00:12;;;;;;;;;32.67;31.33;;;;;;;;5050922;28;9017;-87
2023/06/09 05:02:41;;;;;;;;;31.25;29.75;;;;;;;;5051575;28;9082;-87
2023/06/09 05:05:10;;;;;;;;;30.00;29.75;;;;;;;;5051903;28;8979;-87
2023/06/09 05:07:39;;;;;;;;;32.00;30.00;;;;;;;;5042336;28;8842;-81
2023/06/09 05:10:08;;;;;;;;;32.00;31.00;;;;;;;;5048205;28;8839;-78
2023/06/09 05:12:38;;;;;;;;;28.25;28.25;;;;;;;;5030637;28;8956;-80
2023/06/09 05:15:06;;;;;;;;;29.00;29.00;;;;;;;;5043845;28;8843;-79
2023/06/09 05:17:38;;;;;;;;;29.50;26.00;;;;;;;;5050359;28;8990;-79
2023/06/09 05:20:06;;;;;;;;;26.75;26.50;;;;;;;;5046625;28;8863;-79
2023/06/09 05:22:36;;;;;;;;;33.00;30.75;;;;;;;;5050087;28;8858;-78
2023/06/09 05:25:03;;;;;;;;;24.75;24.75;;;;;;;;5040265;28;8885;-78
2023/06/09 05:27:30;;;;;;;;;29.25;28.75;;;;;;;;5049079;28;8862;-78
2023/06/09 05:29:58;;;;;;;;;26.75;26.50;;;;;;;;5048698;28;8843;-79
2023/06/09 05:32:25;;;;;;;;;29.75;29.75;;;;;;;;5048976;28;8827;-78
2023/06/09 05:34:53;;;;;;;;;27.75;27.75;;;;;;;;5048237;28;8952;-79
2023/06/09 05:37:20;;;;;;;;;26.75;26.75;;;;;;;;5049248;28;8827;-77
2023/06/09 05:39:49;;;;;;;;;30.00;28.25;;;;;;;;5047975;28;8871;-78
2023/06/09 05:42:16;;;;;;;;;27.50;27.00;;;;;;;;5049799;28;8916;-78
2023/06/09 05:44:46;;;;;;;;;25.25;22.00;;;;;;;;5048073;28;8894;-78
2023/06/09 05:47:13;;;;;;;;;27.00;26.50;;;;;;;;5051073;28;8922;-78
2023/06/09 05:49:44;;;;;;;;;28.50;28.25;;;;;;;;5051251;28;9332;-77
2023/06/09 05:52:12;;;;;;;;;26.00;24.75;;;;;;;;5052006;28;8847;-77
2023/06/09 05:54:39;;;;;;;;;22.25;22.25;;;;;;;;5039942;28;8866;-77
2023/06/09 05:57:09;;;;;;;;;23.00;23.00;;;;;;;;5052214;28;8875;-78
2023/06/09 05:59:36;;;;;;;;;30.75;26.75;;;;;;;;5044647;28;8877;-77
2023/06/09 06:02:06;;;;;;;;;28.00;25.00;;;;;;;;5038356;28;8954;-79
2023/06/09 06:04:36;;;;;;;;;25.50;25.25;;;;;;;;5050389;28;8855;-79
2023/06/09 06:07:04;;;;;;;;;19.25;19.25;;;;;;;;5036744;28;8862;-79
2023/06/09 06:09:31;;;;;;;;;27.25;26.25;;;;;;;;5034160;28;8862;-79
2023/06/09 06:11:58;;;;;;;;;25.75;23.75;;;;;;;;5042808;28;8985;-79
2023/06/09 06:14:27;;;;;;;;;22.50;22.50;;;;;;;;5048019;28;9013;-80
2023/06/09 06:16:54;;;;;;;;;21.75;19.75;;;;;;;;5048739;28;8835;-82
2023/06/09 06:19:21;;;;;;;;;23.75;23.25;;;;;;;;5040768;28;8849;-81
2023/06/09 06:21:52;;;;;;;;;22.25;22.25;;;;;;;;5051016;28;8882;-81
2023/06/09 06:24:25;;;;;;;;;20.00;20.00;;;;;;;;5049166;28;8843;-82
2023/06/09 06:26:52;;;;;;;;;20.50;20.50;;;;;;;;5044578;28;8854;-85
2023/06/09 06:29:20;;;;;;;;;18.00;18.00;;;;;;;;5042917;28;8852;-82
2023/06/09 06:31:49;;;;;;;;;19.25;19.25;;;;;;;;5047491;28;8800;-85
2023/06/09 06:34:16;;;;;;;;;24.00;23.75;;;;;;;;5048490;28;9735;-82
2023/06/09 06:36:43;;;;;;;;;22.25;20.50;;;;;;;;5043809;28;8850;-84
2023/06/09 06:39:13;;;;;;;;;21.00;21.00;;;;;;;;5042878;28;8908;-86
2023/06/09 06:41:41;;;;;;;;;25.25;24.75;;;;;;;;5050268;28;8897;-82
2023/06/09 06:44:08;;;;;;;;;22.00;18.75;;;;;;;;5051144;28;8863;-80
2023/06/09 06:46:36;;;;;;;;;22.00;20.25;;;;;;;;5036372;28;8978;-84
2023/06/09 06:49:05;;;;;;;;;20.25;20.25;;;;;;;;5048040;28;8839;-86
2023/06/09 06:51:35;;;;;;;;;19.00;18.75;;;;;;;;5048579;28;8886;-86
2023/06/09 06:54:03;;;;;;;;;18.00;18.00;;;;;;;;5048357;28;8976;-87
2023/06/09 06:56:31;;;;;;;;;20.50;19.00;;;;;;;;5036559;28;8851;-81
2023/06/09 06:59:00;;;;;;;;;21.50;21.50;;;;;;;;5039601;28;8880;-83
2023/06/09 07:01:28;;;;;;;;;15.00;15.00;;;;;;;;5047280;28;8776;-84
2023/06/09 07:03:59;;;;;;;;;19.50;19.50;;;;;;;;5047847;28;8890;-82
2023/06/09 07:06:27;;;;;;;;;18.00;18.00;;;;;;;;5044436;28;8891;-83
2023/06/09 07:08:56;;;;;;;;;19.75;19.75;;;;;;;;5047931;28;8982;-82
2023/06/09 07:11:25;;;;;;;;;22.25;19.75;;;;;;;;5043472;28;8838;-82
2023/06/09 07:13:53;;;;;;;;;20.00;20.00;;;;;;;;5046110;28;8843;-82
2023/06/09 07:16:23;;;;;;;;;16.50;13.00;;;;;;;;5046153;28;8871;-81
2023/06/09 07:18:50;;;;;;;;;18.40;18.40;;;;;;;;5045922;28;8859;-81
2023/06/09 07:21:18;;;;;;;;;19.50;19.50;;;;;;;;5045445;28;8883;-81
2023/06/09 07:23:50;;;;;;;;;18.50;17.50;;;;;;;;5047718;28;9630;-82
2023/06/09 07:26:18;;;;;;;;;19.00;19.00;;;;;;;;5045631;28;8878;-81
2023/06/09 07:28:45;;;;;;;;;13.40;13.40;;;;;;;;5048574;28;8995;-80
2023/06/09 07:31:13;;;;;;;;;17.60;17.60;;;;;;;;5047106;28;8783;-82
2023/06/09 07:33:40;;;;;;;;;17.80;16.00;;;;;;;;5049212;28;8871;-83
2023/06/09 07:36:10;;;;;;;;;17.20;17.20;;;;;;;;5041405;28;8916;-81
2023/06/09 07:38:37;;;;;;;;;21.80;18.40;;;;;;;;5048203;28;8867;-80
2023/06/09 07:41:10;;;;;;;;;16.20;15.40;;;;;;;;5043036;28;9018;-81
2023/06/09 07:43:38;;;;;;;;;15.40;15.40;;;;;;;;5038327;28;8905;-81
2023/06/09 07:46:05;;;;;;;;;17.40;15.60;;;;;;;;5033127;28;8885;-81
2023/06/09 07:48:32;;;;;;;;;18.40;18.40;;;;;;;;5046449;28;9707;-80
2023/06/09 07:51:02;;;;;;;;;18.00;16.40;;;;;;;;5038548;28;8877;-80
2023/06/09 07:53:30;;;;;;;;;16.00;16.00;;;;;;;;5040707;28;8876;-79
2023/06/09 07:55:57;;;;;;;;;15.60;15.00;;;;;;;;5043562;28;8871;-79
2023/06/09 07:58:25;;;;;;;;;16.20;15.40;;;;;;;;5031414;28;8874;-79
2023/06/09 08:00:59;;;;;;;;;18.60;16.60;;;;;;;;5043920;28;8877;-78
2023/06/09 08:03:29;;;;;;;;;15.60;15.60;;;;;;;;5038517;28;8908;-79
2023/06/09 08:05:58;;;;;;;;;13.60;13.60;;;;;;;;5045750;28;8882;-78
2023/06/09 08:08:25;;;;;;;;;16.00;16.00;;;;;;;;5046915;28;9524;-78
2023/06/09 08:10:52;;;;;;;;;13.40;10.00;;;;;;;;5049552;28;8958;-79
2023/06/09 08:13:22;;;;;;;;;13.80;13.80;;;;;;;;5049785;28;8857;-78
2023/06/09 08:15:51;;;;;;;;;15.60;15.60;;;;;;;;5050422;28;8836;-79
2023/06/09 08:18:18;;;;;;;;;13.80;13.80;;;;;;;;5049989;28;9642;-79
2023/06/09 08:20:46;;;;;;;;;15.60;15.60;;;;;;;;5050262;28;8974;-79
2023/06/09 08:23:13;;;;;;;;;15.60;13.80;;;;;;;;5049495;28;8855;-76
2023/06/09 08:25:41;;;;;;;;;15.60;15.60;;;;;;;;5049666;28;8877;-76
2023/06/09 08:28:08;;;;;;;;;13.80;13.80;;;;;;;;5050078;28;8851;-77
2023/06/09 08:30:35;;;;;;;;;14.00;14.00;;;;;;;;5040643;28;8787;-76
2023/06/09 08:33:04;;;;;;;;;17.60;16.00;;;;;;;;5051338;28;8953;-77
2023/06/09 08:35:33;;;;;;;;;13.40;13.40;;;;;;;;5050267;28;9629;-76
2023/06/09 08:38:00;;;;;;;;;15.00;15.00;;;;;;;;5036290;28;8963;-77
2023/06/09 08:40:28;;;;;;;;;17.40;15.60;;;;;;;;5048628;28;8859;-77
2023/06/09 08:42:57;;;;;;;;;13.60;13.60;;;;;;;;5049341;28;8862;-77
2023/06/09 08:45:24;;;;;;;;;14.20;14.20;;;;;;;;5049038;28;8860;-77
2023/06/09 08:47:57;;;;;;;;;14.00;14.00;;;;;;;;5048705;28;9687;-76
2023/06/09 08:50:30;;;;;;;;;14.80;14.80;;;;;;;;5049430;28;8928;-76
2023/06/09 08:52:58;;;;;;;;;16.00;15.00;;;;;;;;5049265;28;8855;-75
2023/06/09 08:55:25;;;;;;;;;16.20;15.20;;;;;;;;5048779;28;8847;-76
2023/06/09 08:57:53;;;;;;;;;13.80;13.80;;;;;;;;5049905;28;8866;-76
2023/06/09 09:00:20;;;;;;;;;17.80;17.40;;;;;;;;5048060;28;8878;-76
2023/06/09 09:02:47;;;;;;;;;16.60;14.20;;;;;;;;5039328;28;8835;-75
2023/06/09 09:05:15;;;;;;;;;17.00;17.00;;;;;;;;5050988;28;8897;-75
2023/06/09 09:07:45;;;;;;;;;12.00;12.00;;;;;;;;5051189;28;8862;-75
2023/06/09 09:10:12;;;;;;;;;13.80;13.80;;;;;;;;5051307;28;8940;-75
2023/06/09 09:12:49;;;;;;;;;16.60;16.60;;;;;;;;5051548;28;8851;-76
2023/06/09 09:15:17;;;;;;;;;15.00;15.00;;;;;;;;5048589;28;8872;-76
2023/06/09 09:17:46;;;;;;;;;16.00;16.00;;;;;;;;5032537;28;8864;-76
2023/06/09 09:20:15;;;;;;;;;17.60;17.00;;;;;;;;5040950;28;8855;-76
2023/06/09 09:22:49;;;;;;;;;17.00;17.00;;;;;;;;5040447;28;8855;-75
2023/06/09 09:25:23;;;;;;;;;16.60;16.60;;;;;;;;5048758;28;8974;-76
2023/06/09 09:28:04;;;;;;;;;15.20;15.20;;;;;;;;5049128;28;8879;-76
2023/06/09 09:30:48;;;;;;;;;15.80;15.80;;;;;;;;5046701;28;8771;-76
2023/06/09 09:33:18;;;;;;;;;12.80;12.80;;;;;;;;5049291;28;8851;-76
2023/06/09 09:35:47;;;;;;;;;18.20;18.20;;;;;;;;5049367;28;8843;-76
2023/06/09 09:38:22;;;;;;;;;14.40;14.40;;;;;;;;5035377;28;8847;-74
2023/06/09 09:40:53;;;;;;;;;15.00;15.00;;;;;;;;5048888;28;9651;-80
2023/06/09 09:43:21;;;;;;;;;15.60;15.60;;;;;;;;5036791;28;8871;-78
2023/06/09 09:45:51;;;;;;;;;17.60;17.60;;;;;;;;5052130;28;8855;-77
2023/06/09 09:48:25;;;;;;;;;15.00;15.00;;;;;;;;5048729;28;8835;-79
2023/06/09 09:50:54;;;;;;;;;9.80;9.80;;;;;;;;5047352;28;8858;-77
2023/06/09 09:53:24;;;;;;;;;16.60;16.60;;;;;;;;5048990;28;8940;-80
2023/06/09 09:55:53;;;;;;;;;13.20;12.80;;;;;;;;5049236;28;8891;-77
2023/06/09 09:58:29;;;;;;;;;14.20;14.20;;;;;;;;5049719;28;8855;-80
2023/06/09 10:00:58;;;;;;;;;16.60;16.60;;;;;;;;5048700;28;8900;-82
2023/06/09 10:03:26;;;;;;;;;12.80;12.80;;;;;;;;5048449;28;8991;-81
2023/06/09 10:05:55;;;;;;;;;103.75;96.50;;;;;;;;5049168;28;8854;-82
2023/06/09 10:08:28;;;;;;;;;16.60;16.60;;;;;;;;5049948;28;8851;-80
2023/06/09 10:11:00;;;;;;;;;582.00;561.75;;;;;;;;5040188;28;8859;-80
2023/06/09 10:13:29;;;;;;;;;594.83;532.00;;;;;;;;5048755;28;8973;-79
2023/06/09 10:15:59;;;;;;;;;26.60;25.20;;;;;;;;5048439;28;8855;-82
2023/06/09 10:18:29;;;;;;;;;58.50;49.75;;;;;;;;5043602;28;8939;-84
2023/06/09 10:20:57;;;;;;;;;34.40;30.00;;;;;;;;5037912;28;8918;-84
2023/06/09 10:23:27;;;;;;;;;13.80;13.00;;;;;;;;5034153;28;8845;-83
2023/06/09 10:25:54;;;;;;;;;16.80;16.80;;;;;;;;5049419;28;8940;-86
2023/06/09 10:28:22;;;;;;;;;15.40;15.40;;;;;;;;5045666;28;8928;-83
2023/06/09 10:30:50;;;;;;;;;14.40;13.60;;;;;;;;5046342;28;8775;-82
2023/06/09 10:33:22;;;;;;;;;18.40;17.80;;;;;;;;5047672;28;8939;-84
2023/06/09 10:35:50;;;;;;;;;18.40;17.20;;;;;;;;5039158;28;8930;-81
2023/06/09 10:38:30;;;;;;;;;15.60;15.60;;;;;;;;5035084;28;8891;-87
2023/06/09 10:41:12;;;;;;;;;17.00;14.00;;;;;;;;5048615;28;8857;-82
2023/06/09 10:44:03;;;;;;;;;14.60;14.60;;;;;;;;5050041;28;9386;-86
2023/06/09 10:46:42;;;;;;;;;14.20;14.20;;;;;;;;5032815;28;8930;-84
2023/06/09 10:49:22;;;;;;;;;15.20;15.20;;;;;;;;5041581;28;8846;-83
2023/06/09 10:51:55;;;;;;;;;15.60;15.60;;;;;;;;5037622;28;8902;-84
2023/06/09 10:54:32;;;;;;;;;17.00;15.20;;;;;;;;5044898;28;9644;-84
2023/06/09 10:57:03;;;;;;;;;14.80;14.80;;;;;;;;5041932;28;8853;-83
2023/06/09 11:00:14;;;;;;;;;12.80;12.60;;;;;;;;5032843;28;8877;-83
2023/06/09 11:02:42;;;;;;;;;12.20;12.20;;;;;;;;5015880;28;8836;-82
2023/06/09 11:05:10;;;;;;;;;13.60;12.60;;;;;;;;5044563;28;9524;-82
2023/06/09 11:07:49;;;;;;;;;10.60;9.80;;;;;;;;5046420;28;9066;-85
2023/06/09 11:10:31;;;;;;;;;15.00;15.00;;;;;;;;5047392;28;8884;-79
2023/06/09 11:13:00;;;;;;;;;12.40;12.40;;;;;;;;5035041;28;9621;-79
2023/06/09 11:15:57;;;;;;;;;11.60;11.60;;;;;;;;5037262;28;8880;-79
2023/06/09 11:18:25;;;;;;;;;13.20;13.20;;;;;;;;5047032;28;8854;-81
2023/06/09 11:21:36;;;;;;;;;10.00;10.00;;;;;;;;5047172;28;8865;-82
2023/06/09 11:24:19;;;;;;;;;10.60;10.60;;;;;;;;5037701;28;8868;-81
2023/06/09 11:26:48;;;;;;;;;13.00;12.00;;;;;;;;5048667;28;8988;-79
2023/06/09 11:29:22;;;;;;;;;12.00;10.60;;;;;;;;5041276;28;8841;-82
2023/06/09 11:31:59;;;;;;;;;10.60;10.60;;;;;;;;5062142;28;8822;-80
2023/06/09 11:34:56;;;;;;;;;12.00;12.00;;;;;;;;5067797;28;8851;-80
2023/06/09 11:37:25;;;;;;;;;11.00;11.00;;;;;;;;5048822;28;8877;-80
2023/06/09 11:39:56;;;;;;;;;11.00;11.00;;;;;;;;5066250;28;8956;-83
2023/06/09 11:42:25;;;;;;;;;12.00;12.00;;;;;;;;5061856;28;8873;-81
2023/06/09 11:44:52;;;;;;;;;13.60;13.60;;;;;;;;5072561;28;8866;-82
2023/06/09 11:47:28;;;;;;;;;14.20;12.80;;;;;;;;5067014;28;8874;-81
2023/06/09 11:50:04;;;;;;;;;11.80;11.80;;;;;;;;5067272;28;8877;-82
2023/06/09 11:52:32;;;;;;;;;13.60;13.60;;;;;;;;5057597;28;8972;-82
2023/06/09 11:55:03;;;;;;;;;13.20;11.20;;;;;;;;5071326;28;8866;-82
2023/06/09 11:57:33;;;;;;;;;11.80;11.80;;;;;;;;5070549;28;8839;-81
2023/06/09 12:00:01;;;;;;;;;12.80;12.80;;;;;;;;5071287;28;8927;-80
2023/06/09 12:02:30;;;;;;;;;10.40;8.40;;;;;;;;5069809;28;8880;-79
2023/06/09 12:04:59;;;;;;;;;10.00;10.00;;;;;;;;5070971;28;8981;-83
2023/06/09 12:07:27;;;;;;;;;10.00;10.00;;;;;;;;5071570;28;8981;-81
2023/06/09 12:10:07;;;;;;;;;12.20;12.20;;;;;;;;5055352;28;8841;-83
2023/06/09 12:12:47;;;;;;;;;12.00;12.00;;;;;;;;5066400;28;8854;-81
2023/06/09 12:15:16;;;;;;;;;12.60;10.80;;;;;;;;5068060;28;8939;-82
2023/06/09 12:17:47;;;;;;;;;11.00;9.00;;;;;;;;5061295;28;8908;-82
2023/06/09 12:20:24;;;;;;;;;13.60;10.20;;;;;;;;5074159;28;8859;-79
2023/06/09 12:22:52;;;;;;;;;11.00;11.00;;;;;;;;5064855;28;8847;-79
2023/06/09 12:25:26;;;;;;;;;10.80;10.80;;;;;;;;5054421;28;9608;-78
2023/06/09 12:27:57;;;;;;;;;11.40;11.40;;;;;;;;5065188;28;8894;-77
2023/06/09 12:30:34;;;;;;;;;9.00;9.00;;;;;;;;5062821;28;8876;-77
2023/06/09 12:33:09;;;;;;;;;11.60;10.00;;;;;;;;5064328;28;8871;-78
2023/06/09 12:35:40;;;;;;;;;8.60;7.60;;;;;;;;5069232;28;8854;-77
2023/06/09 12:38:15;;;;;;;;;11.20;11.20;;;;;;;;5058237;28;8859;-77
2023/06/09 12:40:46;;;;;;;;;12.60;12.60;;;;;;;;5071105;28;8982;-79
2023/06/09 12:43:15;;;;;;;;;13.00;11.40;;;;;;;;5069283;28;8886;-78
2023/06/09 12:45:43;;;;;;;;;10.60;10.60;;;;;;;;5068737;28;8885;-77
2023/06/09 12:48:11;;;;;;;;;11.80;10.80;;;;;;;;5057480;28;8843;-78
2023/06/09 12:50:39;;;;;;;;;8.40;8.40;;;;;;;;5069868;28;9002;-79
2023/06/09 12:53:08;;;;;;;;;12.00;10.00;;;;;;;;5069907;28;9649;-78
2023/06/09 12:55:35;;;;;;;;;11.80;11.80;;;;;;;;5069716;28;8866;-78
2023/06/09 12:58:06;;;;;;;;;10.20;10.20;;;;;;;;5069293;28;8863;-80
2023/06/09 13:00:37;;;;;;;;;12.60;10.80;;;;;;;;5061434;28;8779;-80
2023/06/09 13:03:07;;;;;;;;;11.60;10.40;;;;;;;;5067141;28;8831;-80
2023/06/09 13:05:35;;;;;;;;;7.60;7.60;;;;;;;;5059269;28;8867;-83
2023/06/09 13:08:04;;;;;;;;;11.00;11.00;;;;;;;;5061322;28;8849;-83
2023/06/09 13:10:32;;;;;;;;;9.60;9.60;;;;;;;;5065960;28;8827;-80
2023/06/09 13:12:59;;;;;;;;;13.60;11.40;;;;;;;;5070832;28;8847;-80
2023/06/09 13:15:29;;;;;;;;;9.60;9.60;;;;;;;;5065687;28;8943;-79
2023/06/09 13:17:58;;;;;;;;;8.60;8.60;;;;;;;;5065647;28;8851;-81
2023/06/09 13:20:25;;;;;;;;;10.80;10.80;;;;;;;;5063045;28;8950;-80
2023/06/09 13:22:53;;;;;;;;;11.60;9.80;;;;;;;;5057448;28;8876;-79
2023/06/09 13:25:20;;;;;;;;;11.20;11.20;;;;;;;;5057624;28;8939;-81
2023/06/09 13:27:47;;;;;;;;;11.60;11.60;;;;;;;;5054308;28;8869;-82
2023/06/09 13:30:15;;;;;;;;;10.80;10.80;;;;;;;;5052472;28;8865;-81
2023/06/09 13:32:42;;;;;;;;;12.00;10.00;;;;;;;;5062354;28;8884;-80
2023/06/09 13:35:11;;;;;;;;;11.40;10.40;;;;;;;;5057767;28;8857;-82
2023/06/09 13:37:39;;;;;;;;;10.00;10.00;;;;;;;;5071651;28;8854;-81
2023/06/09 13:40:07;;;;;;;;;9.80;9.80;;;;;;;;5056659;28;8859;-80
2023/06/09 13:42:36;;;;;;;;;9.20;7.60;;;;;;;;5062694;28;9688;-80
2023/06/09 13:45:05;;;;;;;;;8.00;7.40;;;;;;;;5069141;28;8859;-83
2023/06/09 13:47:33;;;;;;;;;10.60;9.80;;;;;;;;5069042;28;8955;-81
2023/06/09 13:50:00;;;;;;;;;11.20;11.20;;;;;;;;5057099;28;9652;-80
2023/06/09 13:52:29;;;;;;;;;8.20;8.20;;;;;;;;5066753;28;8993;-81
2023/06/09 13:54:58;;;;;;;;;8.60;8.60;;;;;;;;5067507;28;9574;-79
2023/06/09 13:57:25;;;;;;;;;10.20;10.20;;;;;;;;5071709;28;8870;-82
2023/06/09 13:59:55;;;;;;;;;9.00;9.00;;;;;;;;5067466;28;8837;-80
2023/06/09 14:02:23;;;;;;;;;10.00;10.00;;;;;;;;5061010;28;8901;-80
2023/06/09 14:04:50;;;;;;;;;9.80;9.80;;;;;;;;5068897;28;8862;-81
2023/06/09 14:07:20;;;;;;;;;13.60;12.20;;;;;;;;5055405;28;8827;-83
2023/06/09 14:09:49;;;;;;;;;10.00;10.00;;;;;;;;5060769;28;8845;-84
2023/06/09 14:12:16;;;;;;;;;9.60;9.60;;;;;;;;5055047;28;8842;-85
2023/06/09 14:14:43;;;;;;;;;10.80;10.60;;;;;;;;5063654;28;8885;-83
2023/06/09 14:17:11;;;;;;;;;9.00;9.00;;;;;;;;5051800;28;8868;-83
2023/06/09 14:19:38;;;;;;;;;10.00;10.00;;;;;;;;5062164;28;8863;-83
2023/06/09 14:22:08;;;;;;;;;11.80;11.80;;;;;;;;5067911;28;8846;-80
2023/06/09 14:24:36;;;;;;;;;8.80;8.80;;;;;;;;5068277;28;8859;-82
2023/06/09 14:27:07;;;;;;;;;10.60;10.60;;;;;;;;5054962;28;8966;-82
2023/06/09 14:29:35;;;;;;;;;11.60;11.60;;;;;;;;5065856;28;8846;-81
2023/06/09 14:32:03;;;;;;;;;12.00;10.00;;;;;;;;5060689;28;8815;-81
2023/06/09 14:34:30;;;;;;;;;9.40;9.40;;;;;;;;5064446;28;9674;-80
2023/06/09 14:36:57;;;;;;;;;9.80;9.80;;;;;;;;5061826;28;8991;-81
2023/06/09 14:39:25;;;;;;;;;13.00;12.40;;;;;;;;5063461;28;8866;-82
2023/06/09 14:41:52;;;;;;;;;6.60;6.60;;;;;;;;5066427;28;8869;-82
2023/06/09 14:44:21;;;;;;;;;10.40;9.40;;;;;;;;5066575;28;8891;-84
2023/06/09 14:46:51;;;;;;;;;10.00;10.00;;;;;;;;5069212;28;8869;-83